FIN154 EYVI-EFHK
Flight info
| Callsign | FIN154 |
|---|---|
| Flight time | 0h 59m |
| Altitude | 40000 |
| Route | TAGOL DCT LUNIT M983 DOLAT/N0485F410 DCT GONOS Q77 IBUZU Q92 INTOR |
| Aircraft | MD11/H-SDE1E2E3FGHIJ2J3J4J5M1RWXY/LB1D1 |
Departure
| Time | 2026-04-26 11:39 |
|---|---|
| Airport | Vilnius International Airport (EYVI) |
Arrival
| Time | 2026-04-26 12:38 |
|---|---|
| Airport | Helsinki Vantaa Airport (EFHK) |
| Time | Latitude | Longitude | Altitude | Speed | Heading |
|---|---|---|---|---|---|
| 2026-04-26 11:04 | 54.64490 | 25.28747 | 662 ft | 0 kts | 241° |
| 2026-04-26 11:32 | 54.64480 | 25.28719 | 652 ft | 3 kts | 232° |
| 2026-04-26 11:32 | 54.64448 | 25.28666 | 665 ft | 8 kts | 220° |
| 2026-04-26 11:32 | 54.64410 | 25.28643 | 658 ft | 5 kts | 185° |
| 2026-04-26 11:33 | 54.64355 | 25.28647 | 657 ft | 12 kts | 175° |
| 2026-04-26 11:34 | 54.64139 | 25.28678 | 655 ft | 0 kts | 175° |
| 2026-04-26 11:34 | 54.64138 | 25.28678 | 655 ft | 1 kts | 175° |
| 2026-04-26 11:34 | 54.64087 | 25.28695 | 653 ft | 10 kts | 168° |
| 2026-04-26 11:34 | 54.63985 | 25.28724 | 649 ft | 8 kts | 173° |
| 2026-04-26 11:35 | 54.63976 | 25.28726 | 648 ft | 6 kts | 173° |
| 2026-04-26 11:35 | 54.63901 | 25.28739 | 649 ft | 15 kts | 174° |
| 2026-04-26 11:35 | 54.63773 | 25.28756 | 643 ft | 21 kts | 175° |
| 2026-04-26 11:35 | 54.63677 | 25.28742 | 641 ft | 20 kts | 199° |
| 2026-04-26 11:36 | 54.63468 | 25.28606 | 625 ft | 33 kts | 201° |
| 2026-04-26 11:36 | 54.63208 | 25.28428 | 623 ft | 42 kts | 202° |
| 2026-04-26 11:36 | 54.62925 | 25.28237 | 615 ft | 45 kts | 201° |
| 2026-04-26 11:36 | 54.62639 | 25.28039 | 613 ft | 43 kts | 200° |
| 2026-04-26 11:37 | 54.62427 | 25.27987 | 612 ft | 28 kts | 192° |
| 2026-04-26 11:37 | 54.62376 | 25.27915 | 623 ft | 1 kts | 280° |
| 2026-04-26 11:37 | 54.62383 | 25.27900 | 618 ft | 2 kts | 307° |
| 2026-04-26 11:37 | 54.62396 | 25.27890 | 628 ft | 1 kts | 348° |
| 2026-04-26 11:38 | 54.62412 | 25.27895 | 627 ft | 7 kts | 9° |
| 2026-04-26 11:38 | 54.62439 | 25.27908 | 618 ft | 5 kts | 17° |
| 2026-04-26 11:38 | 54.62536 | 25.27972 | 620 ft | 24 kts | 21° |
| 2026-04-26 11:38 | 54.62749 | 25.28118 | 617 ft | 41 kts | 22° |
| 2026-04-26 11:39 | 54.63101 | 25.28359 | 626 ft | 88 kts | 21° |
| 2026-04-26 11:39 | 54.63915 | 25.28915 | 648 ft | 161 kts | 19° |
| 2026-04-26 11:39 | 54.65030 | 25.29744 | 1507 ft | 169 kts | 16° |
| 2026-04-26 11:39 | 54.66066 | 25.30133 | 3088 ft | 141 kts | 350° |
| 2026-04-26 11:40 | 54.66998 | 25.29753 | 4146 ft | 144 kts | 339° |
| 2026-04-26 11:40 | 54.68120 | 25.29202 | 4480 ft | 193 kts | 342° |
| 2026-04-26 11:40 | 54.69565 | 25.28643 | 4753 ft | 226 kts | 345° |
| 2026-04-26 11:40 | 54.71104 | 25.28198 | 5891 ft | 228 kts | 348° |
| 2026-04-26 11:41 | 54.72688 | 25.27836 | 7224 ft | 231 kts | 350° |
| 2026-04-26 11:42 | 54.85348 | 25.26345 | 13387 ft | 320 kts | 355° |
| 2026-04-26 11:43 | 54.87596 | 25.26182 | 14330 ft | 326 kts | 355° |
| 2026-04-26 11:43 | 54.89887 | 25.26022 | 15242 ft | 331 kts | 355° |
| 2026-04-26 11:43 | 54.92201 | 25.25864 | 16202 ft | 335 kts | 355° |
| 2026-04-26 11:43 | 54.94549 | 25.25706 | 17072 ft | 341 kts | 355° |
| 2026-04-26 11:44 | 54.96943 | 25.25545 | 17932 ft | 346 kts | 355° |
| 2026-04-26 11:44 | 54.99370 | 25.25382 | 18685 ft | 351 kts | 356° |
| 2026-04-26 11:44 | 55.01827 | 25.25217 | 19466 ft | 354 kts | 356° |
| 2026-04-26 11:44 | 55.04276 | 25.25053 | 20186 ft | 358 kts | 356° |
| 2026-04-26 11:45 | 55.06773 | 25.24886 | 20898 ft | 361 kts | 356° |
| 2026-04-26 11:45 | 55.09298 | 25.24717 | 21598 ft | 364 kts | 356° |
| 2026-04-26 11:45 | 55.11846 | 25.24545 | 22311 ft | 368 kts | 355° |
| 2026-04-26 11:45 | 55.14420 | 25.24371 | 23042 ft | 372 kts | 355° |
| 2026-04-26 11:46 | 55.17017 | 25.24196 | 23705 ft | 375 kts | 355° |
| 2026-04-26 11:46 | 55.19646 | 25.24018 | 24294 ft | 379 kts | 355° |
| 2026-04-26 11:46 | 55.22303 | 25.23837 | 24909 ft | 383 kts | 355° |
| 2026-04-26 11:46 | 55.24986 | 25.23655 | 25546 ft | 387 kts | 355° |
| 2026-04-26 11:47 | 55.27663 | 25.23473 | 26171 ft | 392 kts | 355° |
| 2026-04-26 11:47 | 55.30407 | 25.23285 | 26771 ft | 398 kts | 356° |
| 2026-04-26 11:47 | 55.33197 | 25.23094 | 27322 ft | 404 kts | 356° |
| 2026-04-26 11:47 | 55.36021 | 25.22902 | 27939 ft | 409 kts | 355° |
| 2026-04-26 11:48 | 55.38880 | 25.22707 | 28547 ft | 413 kts | 355° |
| 2026-04-26 11:48 | 55.41779 | 25.22509 | 29139 ft | 418 kts | 355° |
| 2026-04-26 11:48 | 55.44704 | 25.22308 | 29744 ft | 423 kts | 355° |
| 2026-04-26 11:48 | 55.47653 | 25.22091 | 30312 ft | 424 kts | 355° |
| 2026-04-26 11:49 | 55.50592 | 25.21847 | 30978 ft | 423 kts | 355° |
| 2026-04-26 11:49 | 55.53541 | 25.21589 | 31531 ft | 425 kts | 355° |
| 2026-04-26 11:49 | 55.56502 | 25.21325 | 32090 ft | 426 kts | 355° |
| 2026-04-26 11:49 | 55.59481 | 25.21058 | 32601 ft | 429 kts | 355° |
| 2026-04-26 11:50 | 55.62437 | 25.20793 | 33039 ft | 432 kts | 355° |
| 2026-04-26 11:50 | 55.65486 | 25.20522 | 33555 ft | 434 kts | 355° |
| 2026-04-26 11:50 | 55.68469 | 25.20257 | 34016 ft | 435 kts | 355° |
| 2026-04-26 11:50 | 55.71499 | 25.19989 | 34435 ft | 436 kts | 355° |
| 2026-04-26 11:51 | 55.74532 | 25.19720 | 34867 ft | 436 kts | 355° |
| 2026-04-26 11:51 | 55.77569 | 25.19450 | 35271 ft | 436 kts | 355° |
| 2026-04-26 11:51 | 55.80613 | 25.19179 | 35676 ft | 437 kts | 355° |
| 2026-04-26 11:51 | 55.83614 | 25.18912 | 36067 ft | 437 kts | 355° |
| 2026-04-26 11:52 | 55.86651 | 25.18640 | 36455 ft | 437 kts | 355° |
| 2026-04-26 11:52 | 55.89698 | 25.18367 | 36810 ft | 439 kts | 355° |
| 2026-04-26 11:52 | 55.92750 | 25.18093 | 37169 ft | 440 kts | 355° |
| 2026-04-26 11:52 | 55.95814 | 25.17818 | 37524 ft | 440 kts | 355° |
| 2026-04-26 11:53 | 55.98878 | 25.17543 | 37873 ft | 440 kts | 355° |
| 2026-04-26 11:53 | 56.01935 | 25.17267 | 38204 ft | 440 kts | 355° |
| 2026-04-26 11:53 | 56.04995 | 25.16992 | 38548 ft | 439 kts | 355° |
| 2026-04-26 11:54 | 56.11085 | 25.16442 | 39190 ft | 436 kts | 355° |
| 2026-04-26 11:54 | 56.14105 | 25.16169 | 39530 ft | 433 kts | 355° |
| 2026-04-26 11:54 | 56.17117 | 25.15894 | 39733 ft | 434 kts | 355° |
| 2026-04-26 11:55 | 56.23187 | 25.15314 | 39799 ft | 444 kts | 354° |
| 2026-04-26 11:55 | 56.29393 | 25.14716 | 39802 ft | 449 kts | 355° |
| 2026-04-26 11:56 | 56.35652 | 25.14116 | 39805 ft | 451 kts | 355° |
| 2026-04-26 11:56 | 56.41892 | 25.13518 | 39811 ft | 451 kts | 355° |
| 2026-04-26 11:57 | 56.48165 | 25.12914 | 39816 ft | 452 kts | 355° |
| 2026-04-26 11:57 | 56.54399 | 25.12311 | 39815 ft | 454 kts | 355° |
| 2026-04-26 11:58 | 56.60726 | 25.11698 | 39812 ft | 453 kts | 355° |
| 2026-04-26 11:58 | 56.67012 | 25.11086 | 39824 ft | 452 kts | 355° |
| 2026-04-26 11:59 | 56.72268 | 25.10573 | 39823 ft | 451 kts | 355° |
| 2026-04-26 11:59 | 56.78526 | 25.09959 | 39834 ft | 452 kts | 355° |
| 2026-04-26 12:00 | 56.84828 | 25.09340 | 39824 ft | 452 kts | 355° |
| 2026-04-26 12:00 | 56.91081 | 25.08723 | 39825 ft | 453 kts | 355° |
| 2026-04-26 12:01 | 56.97366 | 25.08101 | 39808 ft | 452 kts | 355° |
| 2026-04-26 12:01 | 57.03661 | 25.07472 | 39804 ft | 453 kts | 355° |
| 2026-04-26 12:02 | 57.09965 | 25.06840 | 39816 ft | 453 kts | 355° |
| 2026-04-26 12:02 | 57.16278 | 25.06206 | 39810 ft | 455 kts | 355° |
| 2026-04-26 12:03 | 57.22576 | 25.05576 | 39799 ft | 452 kts | 355° |
| 2026-04-26 12:03 | 57.28829 | 25.04957 | 39819 ft | 452 kts | 355° |
| 2026-04-26 12:04 | 57.35106 | 25.04382 | 39812 ft | 452 kts | 355° |
| 2026-04-26 12:04 | 57.41396 | 25.03818 | 39817 ft | 453 kts | 355° |
| 2026-04-26 12:05 | 57.47707 | 25.03249 | 39800 ft | 454 kts | 355° |
| 2026-04-26 12:05 | 57.54024 | 25.02676 | 39821 ft | 454 kts | 355° |
| 2026-04-26 12:06 | 57.60301 | 25.02104 | 39811 ft | 455 kts | 355° |
| 2026-04-26 12:06 | 57.66617 | 25.01526 | 39809 ft | 454 kts | 355° |
| 2026-04-26 12:07 | 57.72937 | 25.00945 | 39802 ft | 456 kts | 355° |
| 2026-04-26 12:07 | 57.79268 | 25.00362 | 39812 ft | 454 kts | 355° |
| 2026-04-26 12:08 | 57.85574 | 24.99780 | 39812 ft | 454 kts | 355° |
| 2026-04-26 12:08 | 57.91849 | 24.99198 | 39813 ft | 453 kts | 355° |
| 2026-04-26 12:09 | 57.98146 | 24.98614 | 39802 ft | 453 kts | 356° |
| 2026-04-26 12:09 | 58.04438 | 24.99648 | 39804 ft | 458 kts | 10° |
| 2026-04-26 12:10 | 58.10642 | 25.02666 | 39791 ft | 460 kts | 13° |
| 2026-04-26 12:10 | 58.16821 | 25.05855 | 39783 ft | 460 kts | 12° |
| 2026-04-26 12:11 | 58.23020 | 25.08900 | 39781 ft | 460 kts | 12° |
| 2026-04-26 12:11 | 58.29232 | 25.11880 | 39778 ft | 460 kts | 11° |
| 2026-04-26 12:12 | 58.35403 | 25.14836 | 39775 ft | 460 kts | 11° |
| 2026-04-26 12:12 | 58.38509 | 25.16329 | 39485 ft | 460 kts | 12° |
| 2026-04-26 12:12 | 58.41620 | 25.17828 | 39089 ft | 461 kts | 11° |
| 2026-04-26 12:12 | 58.43720 | 25.18843 | 38763 ft | 461 kts | 11° |
| 2026-04-26 12:13 | 58.47829 | 25.20831 | 37936 ft | 459 kts | 12° |
| 2026-04-26 12:13 | 58.50929 | 25.22335 | 37326 ft | 459 kts | 11° |
| 2026-04-26 12:13 | 58.54026 | 25.23839 | 36750 ft | 458 kts | 12° |
| 2026-04-26 12:13 | 58.57113 | 25.25342 | 36208 ft | 458 kts | 12° |
| 2026-04-26 12:14 | 58.60205 | 25.26849 | 35642 ft | 458 kts | 12° |
| 2026-04-26 12:14 | 58.63294 | 25.28359 | 35084 ft | 456 kts | 12° |
| 2026-04-26 12:14 | 58.66381 | 25.29869 | 34536 ft | 457 kts | 12° |
| 2026-04-26 12:14 | 58.69414 | 25.31356 | 33957 ft | 453 kts | 12° |
| 2026-04-26 12:15 | 58.72420 | 25.32837 | 33288 ft | 439 kts | 12° |
| 2026-04-26 12:15 | 58.75357 | 25.34286 | 32664 ft | 431 kts | 12° |
| 2026-04-26 12:15 | 58.78252 | 25.35714 | 32100 ft | 429 kts | 12° |
| 2026-04-26 12:15 | 58.81162 | 25.37148 | 31538 ft | 428 kts | 12° |
| 2026-04-26 12:16 | 58.84047 | 25.38582 | 30983 ft | 427 kts | 12° |
| 2026-04-26 12:16 | 58.86893 | 25.40006 | 30427 ft | 427 kts | 12° |
| 2026-04-26 12:16 | 58.89772 | 25.41447 | 29849 ft | 427 kts | 12° |
| 2026-04-26 12:16 | 58.92640 | 25.42882 | 29167 ft | 426 kts | 12° |
| 2026-04-26 12:17 | 58.95520 | 25.44320 | 28546 ft | 427 kts | 12° |
| 2026-04-26 12:17 | 58.98402 | 25.45754 | 27936 ft | 428 kts | 12° |
| 2026-04-26 12:17 | 59.01334 | 25.46746 | 27340 ft | 428 kts | 2° |
| 2026-04-26 12:17 | 59.04288 | 25.46660 | 26685 ft | 421 kts | 354° |
| 2026-04-26 12:18 | 59.07186 | 25.45986 | 26036 ft | 418 kts | 351° |
| 2026-04-26 12:18 | 59.10046 | 25.45120 | 25408 ft | 415 kts | 351° |
| 2026-04-26 12:18 | 59.12881 | 25.44238 | 24790 ft | 415 kts | 351° |
| 2026-04-26 12:18 | 59.15719 | 25.43391 | 24178 ft | 411 kts | 351° |
| 2026-04-26 12:19 | 59.18525 | 25.42594 | 23555 ft | 406 kts | 352° |
| 2026-04-26 12:19 | 59.21346 | 25.41825 | 22863 ft | 408 kts | 352° |
| 2026-04-26 12:19 | 59.24153 | 25.41079 | 22172 ft | 406 kts | 352° |
| 2026-04-26 12:19 | 59.26944 | 25.40346 | 21553 ft | 400 kts | 352° |
| 2026-04-26 12:20 | 59.29656 | 25.39636 | 20949 ft | 395 kts | 352° |
| 2026-04-26 12:20 | 59.32359 | 25.38929 | 20355 ft | 390 kts | 352° |
| 2026-04-26 12:20 | 59.35041 | 25.38226 | 19768 ft | 387 kts | 352° |
| 2026-04-26 12:20 | 59.37718 | 25.37523 | 19164 ft | 385 kts | 352° |
| 2026-04-26 12:21 | 59.40346 | 25.36831 | 18605 ft | 379 kts | 352° |
| 2026-04-26 12:21 | 59.42948 | 25.36147 | 18019 ft | 376 kts | 351° |
| 2026-04-26 12:21 | 59.45532 | 25.35333 | 17400 ft | 376 kts | 348° |
| 2026-04-26 12:21 | 59.48119 | 25.34228 | 16669 ft | 381 kts | 346° |
| 2026-04-26 12:22 | 59.50644 | 25.33022 | 16153 ft | 367 kts | 346° |
| 2026-04-26 12:22 | 59.53107 | 25.31916 | 15675 ft | 359 kts | 346° |
| 2026-04-26 12:22 | 59.55500 | 25.30866 | 15197 ft | 351 kts | 346° |
| 2026-04-26 12:22 | 59.57873 | 25.29825 | 14673 ft | 349 kts | 347° |
| 2026-04-26 12:23 | 59.60239 | 25.28779 | 14165 ft | 345 kts | 346° |
| 2026-04-26 12:23 | 59.62588 | 25.27735 | 13661 ft | 344 kts | 346° |
| 2026-04-26 12:23 | 59.64921 | 25.26694 | 13115 ft | 341 kts | 346° |
| 2026-04-26 12:23 | 59.67223 | 25.25662 | 12702 ft | 338 kts | 346° |
| 2026-04-26 12:24 | 59.69482 | 25.24647 | 12280 ft | 329 kts | 346° |
| 2026-04-26 12:24 | 59.71696 | 25.23650 | 11883 ft | 330 kts | 346° |
| 2026-04-26 12:24 | 59.73919 | 25.22648 | 11766 ft | 328 kts | 346° |
| 2026-04-26 12:25 | 59.78379 | 25.20631 | 11736 ft | 316 kts | 346° |
| 2026-04-26 12:25 | 59.80418 | 25.19714 | 11760 ft | 286 kts | 347° |
| 2026-04-26 12:25 | 59.82304 | 25.19244 | 11744 ft | 263 kts | 359° |
| 2026-04-26 12:25 | 59.84070 | 25.19865 | 11757 ft | 259 kts | 15° |
| 2026-04-26 12:26 | 59.85762 | 25.21141 | 11767 ft | 262 kts | 19° |
| 2026-04-26 12:26 | 59.87450 | 25.22561 | 11509 ft | 266 kts | 19° |
| 2026-04-26 12:26 | 59.89145 | 25.24015 | 10822 ft | 265 kts | 19° |
| 2026-04-26 12:26 | 59.90828 | 25.25475 | 10330 ft | 257 kts | 20° |
| 2026-04-26 12:27 | 59.92418 | 25.26877 | 9581 ft | 248 kts | 20° |
| 2026-04-26 12:27 | 59.93982 | 25.28251 | 8551 ft | 243 kts | 19° |
| 2026-04-26 12:27 | 59.95506 | 25.29590 | 7842 ft | 235 kts | 19° |
| 2026-04-26 12:27 | 59.97014 | 25.30908 | 7472 ft | 238 kts | 19° |
| 2026-04-26 12:28 | 59.98541 | 25.32245 | 7093 ft | 240 kts | 19° |
| 2026-04-26 12:28 | 60.00062 | 25.33579 | 6702 ft | 238 kts | 18° |
| 2026-04-26 12:28 | 60.01066 | 25.34460 | 6468 ft | 237 kts | 18° |
| 2026-04-26 12:28 | 60.02568 | 25.35779 | 6105 ft | 236 kts | 18° |
| 2026-04-26 12:29 | 60.04539 | 25.37509 | 5651 ft | 233 kts | 18° |
| 2026-04-26 12:29 | 60.06025 | 25.38809 | 5494 ft | 232 kts | 18° |
| 2026-04-26 12:29 | 60.08532 | 25.40216 | 5044 ft | 220 kts | 352° |
| 2026-04-26 12:30 | 60.09925 | 25.39033 | 4794 ft | 222 kts | 323° |
| 2026-04-26 12:30 | 60.10800 | 25.36449 | 4617 ft | 231 kts | 297° |
| 2026-04-26 12:30 | 60.11256 | 25.33406 | 4456 ft | 216 kts | 293° |
| 2026-04-26 12:31 | 60.12080 | 25.28444 | 3988 ft | 163 kts | 301° |
| 2026-04-26 12:31 | 60.12518 | 25.26454 | 3762 ft | 152 kts | 304° |
| 2026-04-26 12:31 | 60.12978 | 25.24587 | 3652 ft | 149 kts | 306° |
| 2026-04-26 12:31 | 60.13465 | 25.22758 | 3555 ft | 148 kts | 308° |
| 2026-04-26 12:32 | 60.13954 | 25.21009 | 3476 ft | 136 kts | 309° |
| 2026-04-26 12:32 | 60.14331 | 25.19706 | 3326 ft | 127 kts | 310° |
| 2026-04-26 12:32 | 60.15236 | 25.16749 | 3072 ft | 122 kts | 312° |
| 2026-04-26 12:33 | 60.15694 | 25.15320 | 3046 ft | 124 kts | 314° |
| 2026-04-26 12:33 | 60.16329 | 25.14280 | 3002 ft | 117 kts | 334° |
| 2026-04-26 12:33 | 60.17038 | 25.13450 | 3046 ft | 118 kts | 334° |
| 2026-04-26 12:33 | 60.17735 | 25.12640 | 2998 ft | 117 kts | 334° |
| 2026-04-26 12:34 | 60.18439 | 25.11836 | 3025 ft | 117 kts | 334° |
| 2026-04-26 12:34 | 60.19142 | 25.11046 | 2987 ft | 115 kts | 335° |
| 2026-04-26 12:34 | 60.19840 | 25.10273 | 3005 ft | 114 kts | 335° |
| 2026-04-26 12:34 | 60.20505 | 25.09542 | 2707 ft | 107 kts | 335° |
| 2026-04-26 12:35 | 60.21168 | 25.08800 | 2225 ft | 112 kts | 334° |
| 2026-04-26 12:35 | 60.21856 | 25.08017 | 2121 ft | 115 kts | 334° |
| 2026-04-26 12:35 | 60.22557 | 25.07218 | 2148 ft | 116 kts | 334° |
| 2026-04-26 12:35 | 60.23269 | 25.06457 | 2113 ft | 116 kts | 336° |
| 2026-04-26 12:36 | 60.23974 | 25.05732 | 2116 ft | 116 kts | 336° |
| 2026-04-26 12:36 | 60.24683 | 25.05002 | 2114 ft | 116 kts | 336° |
| 2026-04-26 12:36 | 60.25408 | 25.04265 | 1826 ft | 115 kts | 336° |
| 2026-04-26 12:36 | 60.26133 | 25.03534 | 1308 ft | 119 kts | 336° |
| 2026-04-26 12:37 | 60.26933 | 25.02700 | 1119 ft | 127 kts | 335° |
| 2026-04-26 12:37 | 60.27718 | 25.01893 | 838 ft | 122 kts | 335° |
| 2026-04-26 12:37 | 60.28456 | 25.01170 | 534 ft | 127 kts | 333° |
| 2026-04-26 12:37 | 60.29264 | 25.00339 | 393 ft | 129 kts | 330° |
| 2026-04-26 12:38 | 60.30058 | 24.99508 | 298 ft | 136 kts | 330° |
| 2026-04-26 12:38 | 60.30870 | 24.98657 | 163 ft | 121 kts | 332° |
| 2026-04-26 12:38 | 60.31492 | 24.98006 | 161 ft | 81 kts | 335° |
| 2026-04-26 12:38 | 60.31873 | 24.97620 | 160 ft | 48 kts | 334° |
| 2026-04-26 12:39 | 60.32172 | 24.97316 | 163 ft | 44 kts | 332° |
| 2026-04-26 12:39 | 60.32374 | 24.97050 | 171 ft | 14 kts | 291° |
| 2026-04-26 12:39 | 60.32371 | 24.96960 | 171 ft | 5 kts | 250° |
| 2026-04-26 12:39 | 60.32354 | 24.96899 | 172 ft | 3 kts | 233° |
| 2026-04-26 12:40 | 60.32348 | 24.96886 | 172 ft | 0 kts | 230° |
| 2026-04-26 12:41 | 60.32342 | 24.96871 | 172 ft | 0 kts | 230° |
| 2026-04-26 12:41 | 60.32340 | 24.96867 | 172 ft | 4 kts | 230° |
| 2026-04-26 12:41 | 60.32267 | 24.96699 | 174 ft | 20 kts | 227° |
| 2026-04-26 12:42 | 60.32172 | 24.96490 | 175 ft | 20 kts | 227° |
| 2026-04-26 12:42 | 60.32073 | 24.96272 | 175 ft | 23 kts | 228° |
| 2026-04-26 12:42 | 60.31998 | 24.96108 | 176 ft | 13 kts | 221° |
| 2026-04-26 12:42 | 60.31935 | 24.96058 | 175 ft | 4 kts | 167° |
| 2026-04-26 12:43 | 60.31894 | 24.96090 | 175 ft | 5 kts | 149° |
| 2026-04-26 12:43 | 60.31847 | 24.96118 | 174 ft | 8 kts | 177° |
| 2026-04-26 12:43 | 60.31821 | 24.96096 | 174 ft | 3 kts | 212° |
| 2026-04-26 12:43 | 60.31780 | 24.96018 | 174 ft | 16 kts | 227° |
| 2026-04-26 12:44 | 60.31699 | 24.95839 | 174 ft | 13 kts | 227° |
| 2026-04-26 12:44 | 60.31691 | 24.95826 | 174 ft | 1 kts | 213° |
| 2026-04-26 12:44 | 60.31684 | 24.95826 | 174 ft | 1 kts | 187° |
| 2026-04-26 12:44 | 60.31675 | 24.95834 | 174 ft | 1 kts | 154° |
| 2026-04-26 12:45 | 60.31670 | 24.95848 | 174 ft | 1 kts | 127° |
| 2026-04-26 12:45 | 60.31663 | 24.95880 | 174 ft | 4 kts | 120° |
| 2026-04-26 12:45 | 60.31658 | 24.95893 | 174 ft | 1 kts | 126° |
| 2026-04-26 12:45 | 60.31656 | 24.95900 | 174 ft | 1 kts | 124° |
| 2026-04-26 12:46 | 60.31652 | 24.95909 | 174 ft | 1 kts | 126° |
| 2026-04-26 12:46 | 60.31652 | 24.95910 | 174 ft | 0 kts | 126° |